Time;durP1;ratioP1;P1;durP2;ratioP2;P2;SDS_P1;SDS_P2;PMS_P1;PMS_P2;Temp;Humidity;BMP_temperature;BMP_pressure;BME280_temperature;BME280_humidity;BME280_pressure;Samples;Min_cycle;Max_cycle;Signal;HPM_P1;HPM_P2
2020/12/15 00:00:37;;;;;;;31.90;19.37;;;3.20;93.20;;;;;;5001088;28;20490;-80
2020/12/15 00:03:03;;;;;;;29.37;20.67;;;3.20;93.20;;;;;;4982463;28;20488;-80
2020/12/15 00:05:30;;;;;;;25.20;19.73;;;3.20;93.60;;;;;;4977070;28;20457;-81
2020/12/15 00:07:56;;;;;;;30.00;19.80;;;3.20;94.00;;;;;;4997567;28;20458;-80
2020/12/15 00:10:23;;;;;;;29.67;21.17;;;3.10;93.90;;;;;;4984394;28;20467;-80
2020/12/15 00:12:50;;;;;;;31.30;21.80;;;3.10;94.00;;;;;;4995753;28;20827;-80
2020/12/15 00:15:16;;;;;;;29.50;20.33;;;3.10;94.30;;;;;;4991165;28;20454;-79
2020/12/15 00:17:43;;;;;;;30.10;20.70;;;3.10;94.90;;;;;;4973039;28;20458;-79
2020/12/15 00:20:12;;;;;;;29.60;19.80;;;3.10;94.80;;;;;;4984143;28;20456;-79
2020/12/15 00:22:39;;;;;;;33.27;21.37;;;3.10;95.20;;;;;;4978491;28;20485;-80
2020/12/15 00:25:06;;;;;;;35.90;22.00;;;3.10;94.70;;;;;;4974806;28;20452;-79
2020/12/15 00:27:33;;;;;;;30.80;21.27;;;3.10;95.00;;;;;;4973994;28;20511;-79
2020/12/15 00:29:59;;;;;;;32.47;22.53;;;3.10;95.20;;;;;;4988724;28;20460;-81
2020/12/15 00:32:26;;;;;;;31.47;20.80;;;3.10;95.20;;;;;;4991701;28;20457;-81
2020/12/15 00:34:55;;;;;;;32.97;20.93;;;3.10;95.20;;;;;;4991812;28;20486;-80
2020/12/15 00:37:25;;;;;;;34.20;22.07;;;3.00;95.20;;;;;;4984698;28;20467;-80
2020/12/15 00:39:52;;;;;;;33.87;21.90;;;3.00;95.10;;;;;;4991075;28;20494;-80
2020/12/15 00:42:18;;;;;;;33.47;22.33;;;3.00;96.20;;;;;;4975058;28;20506;-79
2020/12/15 00:44:46;;;;;;;31.50;21.10;;;3.00;96.70;;;;;;4972580;28;20499;-81
2020/12/15 00:47:17;;;;;;;32.10;20.93;;;3.00;96.70;;;;;;4977316;28;20474;-80
2020/12/15 00:49:44;;;;;;;35.03;23.77;;;3.00;96.80;;;;;;4971840;28;20460;-79
2020/12/15 00:52:10;;;;;;;35.23;23.00;;;3.00;96.30;;;;;;4972448;28;20467;-79
2020/12/15 00:54:39;;;;;;;35.07;22.30;;;3.00;96.30;;;;;;4983537;28;20470;-79
2020/12/15 00:57:06;;;;;;;31.67;22.83;;;3.00;96.70;;;;;;4983685;28;20439;-81
2020/12/15 00:59:32;;;;;;;36.77;23.47;;;2.90;97.20;;;;;;4976560;28;20466;-80
2020/12/15 01:02:04;;;;;;;35.90;23.33;;;2.90;97.50;;;;;;4988065;28;20451;-80
2020/12/15 01:04:31;;;;;;;38.10;24.00;;;2.90;98.60;;;;;;4973382;28;21260;-79
2020/12/15 01:06:58;;;;;;;35.03;22.03;;;2.90;99.20;;;;;;4989598;28;20453;-79
2020/12/15 01:09:27;;;;;;;31.70;22.80;;;2.90;98.80;;;;;;4983381;28;20456;-80
2020/12/15 01:11:55;;;;;;;34.77;23.87;;;2.90;98.40;;;;;;4987679;28;20554;-80
2020/12/15 01:14:22;;;;;;;34.90;22.50;;;2.90;98.90;;;;;;4987242;28;20476;-81
2020/12/15 01:16:48;;;;;;;38.30;23.97;;;2.90;99.10;;;;;;4988746;28;20458;-79
2020/12/15 01:19:15;;;;;;;37.43;22.77;;;2.90;99.50;;;;;;4986023;28;20980;-80
2020/12/15 01:21:42;;;;;;;37.10;23.27;;;2.90;98.00;;;;;;4989969;28;20452;-81
2020/12/15 01:24:11;;;;;;;36.13;23.53;;;2.90;97.90;;;;;;4982525;28;20457;-80
2020/12/15 01:26:38;;;;;;;35.03;23.47;;;2.90;98.20;;;;;;4984636;28;20517;-81
2020/12/15 01:29:04;;;;;;;36.17;22.53;;;2.80;97.90;;;;;;4985998;28;20451;-80
2020/12/15 01:31:32;;;;;;;39.70;23.33;;;2.90;98.60;;;;;;4985151;28;20824;-81
2020/12/15 01:33:59;;;;;;;41.07;24.17;;;2.90;98.90;;;;;;4988277;28;20475;-80
2020/12/15 01:36:27;;;;;;;32.80;22.20;;;2.80;98.90;;;;;;4988107;28;20509;-80
2020/12/15 01:38:54;;;;;;;33.67;22.97;;;2.80;99.60;;;;;;4972040;28;20438;-79
2020/12/15 01:41:23;;;;;;;34.70;23.07;;;2.80;99.30;;;;;;4971678;28;20842;-79
2020/12/15 01:44:02;;;;;;;36.17;24.00;;;2.80;99.00;;;;;;4986029;28;20454;-80
2020/12/15 01:46:30;;;;;;;32.93;22.07;;;2.80;99.20;;;;;;4994630;28;21012;-79
2020/12/15 01:48:57;;;;;;;36.47;22.77;;;2.80;98.80;;;;;;4984112;28;20448;-80
2020/12/15 01:51:24;;;;;;;34.90;22.53;;;2.80;99.60;;;;;;4985280;28;20454;-80
2020/12/15 01:53:54;;;;;;;32.60;22.77;;;2.80;99.60;;;;;;4981105;28;20496;-80
2020/12/15 01:56:22;;;;;;;36.80;24.10;;;2.90;99.00;;;;;;4993331;28;20494;-78
2020/12/15 01:58:53;;;;;;;30.67;21.83;;;3.00;98.10;;;;;;4981874;28;20460;-78
2020/12/15 02:01:19;;;;;;;34.40;23.50;;;2.90;97.90;;;;;;4998210;28;20477;-80
2020/12/15 02:03:46;;;;;;;36.83;23.60;;;2.90;97.90;;;;;;4998961;28;20450;-80
2020/12/15 02:06:12;;;;;;;36.90;25.37;;;2.90;97.50;;;;;;4997150;28;20498;-80
2020/12/15 02:08:41;;;;;;;35.40;23.40;;;2.90;97.40;;;;;;4999859;28;20465;-79
2020/12/15 02:11:09;;;;;;;35.17;23.73;;;2.90;97.00;;;;;;4997960;28;20473;-80
2020/12/15 02:13:36;;;;;;;36.33;23.83;;;2.90;97.10;;;;;;5003292;28;20471;-79
2020/12/15 02:16:03;;;;;;;39.80;23.20;;;2.90;97.00;;;;;;4992664;28;20490;-80
2020/12/15 02:18:30;;;;;;;35.23;23.53;;;2.90;97.10;;;;;;4996968;28;20447;-79
2020/12/15 02:20:57;;;;;;;36.03;23.27;;;2.90;97.50;;;;;;4995919;28;20583;-80
2020/12/15 02:23:24;;;;;;;36.60;23.90;;;2.80;97.80;;;;;;4996050;28;20441;-79
2020/12/15 02:25:50;;;;;;;36.60;22.97;;;2.80;98.40;;;;;;4994455;28;20443;-79
2020/12/15 02:28:19;;;;;;;39.60;25.60;;;2.80;99.20;;;;;;4989401;28;20452;-81
2020/12/15 02:30:45;;;;;;;37.40;24.30;;;2.80;98.90;;;;;;4984834;28;20486;-79
2020/12/15 02:33:12;;;;;;;38.43;23.03;;;2.80;99.10;;;;;;4988498;28;20468;-79
2020/12/15 02:35:38;;;;;;;42.23;24.70;;;2.90;99.20;;;;;;4982617;28;20448;-79
2020/12/15 02:38:05;;;;;;;35.57;24.30;;;2.90;98.50;;;;;;4978877;28;20443;-79
2020/12/15 02:40:35;;;;;;;37.53;25.10;;;2.90;98.20;;;;;;4963682;28;20934;-79
2020/12/15 02:43:01;;;;;;;39.90;24.00;;;3.00;97.50;;;;;;4970061;28;20474;-80
2020/12/15 02:45:28;;;;;;;36.80;24.50;;;3.10;96.70;;;;;;4980703;28;20444;-79
2020/12/15 02:47:54;;;;;;;35.97;24.67;;;3.10;96.10;;;;;;4995383;28;20453;-80
2020/12/15 02:50:23;;;;;;;37.53;25.07;;;3.10;96.00;;;;;;4997218;28;20462;-80
2020/12/15 02:52:51;;;;;;;39.43;24.00;;;3.10;95.90;;;;;;4974043;28;20452;-80
2020/12/15 02:55:18;;;;;;;36.17;24.20;;;3.10;96.00;;;;;;4983196;28;20494;-80
2020/12/15 02:57:52;;;;;;;36.20;24.40;;;3.20;95.90;;;;;;4977681;28;20456;-79
2020/12/15 03:00:19;;;;;;;36.80;24.57;;;3.20;95.60;;;;;;4985159;28;20446;-79
2020/12/15 03:02:48;;;;;;;36.40;24.80;;;3.20;95.60;;;;;;4990575;28;20487;-79
2020/12/15 03:05:15;;;;;;;38.97;23.93;;;3.20;95.40;;;;;;4963926;28;20470;-79
2020/12/15 03:07:42;;;;;;;39.40;24.27;;;3.20;95.00;;;;;;4978689;28;20452;-79
2020/12/15 03:10:10;;;;;;;35.57;23.40;;;3.30;94.90;;;;;;4983915;28;20450;-79
2020/12/15 03:12:37;;;;;;;37.57;23.50;;;3.30;94.80;;;;;;4983401;28;20458;-79
2020/12/15 03:15:07;;;;;;;37.27;23.77;;;3.30;95.10;;;;;;4973873;28;20480;-79
2020/12/15 03:17:33;;;;;;;36.97;23.37;;;3.30;94.90;;;;;;4986455;28;20453;-79
2020/12/15 03:20:03;;;;;;;36.73;24.03;;;3.20;94.70;;;;;;4990013;28;20848;-79
2020/12/15 03:22:29;;;;;;;38.30;24.87;;;3.20;94.80;;;;;;4973466;28;20451;-79
2020/12/15 03:24:56;;;;;;;37.17;23.20;;;3.20;94.90;;;;;;4979863;28;20476;-79
2020/12/15 03:27:22;;;;;;;33.80;23.70;;;3.20;94.90;;;;;;4982872;28;20550;-79
2020/12/15 03:29:51;;;;;;;35.30;23.67;;;3.20;95.10;;;;;;4987912;28;20463;-80
2020/12/15 03:32:20;;;;;;;34.47;23.20;;;3.20;95.10;;;;;;4988340;28;20454;-80
2020/12/15 03:34:47;;;;;;;33.73;22.73;;;3.10;95.60;;;;;;4975368;28;20578;-80
2020/12/15 03:37:13;;;;;;;43.57;24.40;;;3.20;95.50;;;;;;4982102;28;20856;-79
2020/12/15 03:39:39;;;;;;;35.60;23.80;;;3.20;95.40;;;;;;4974188;28;20440;-80
2020/12/15 03:42:06;;;;;;;35.70;24.10;;;3.30;95.30;;;;;;4973411;28;20442;-80
2020/12/15 03:44:35;;;;;;;36.87;23.93;;;3.20;95.20;;;;;;4980726;28;20551;-80
2020/12/15 03:47:02;;;;;;;39.10;23.83;;;3.30;94.90;;;;;;4981608;28;20458;-80
2020/12/15 03:49:30;;;;;;;36.53;23.53;;;3.30;95.00;;;;;;4983862;28;20448;-79
2020/12/15 03:51:59;;;;;;;38.40;25.10;;;3.30;94.70;;;;;;4975538;28;20451;-79
2020/12/15 03:54:27;;;;;;;37.33;24.50;;;3.30;94.70;;;;;;4976908;28;20882;-79
2020/12/15 03:56:57;;;;;;;35.70;23.40;;;3.40;94.80;;;;;;4993591;28;20467;-79
2020/12/15 03:59:25;;;;;;;36.10;24.77;;;3.40;94.10;;;;;;4982965;28;20448;-79
2020/12/15 04:01:51;;;;;;;38.83;23.97;;;3.40;94.00;;;;;;4983798;28;20458;-79
2020/12/15 04:04:19;;;;;;;35.40;22.63;;;3.40;93.60;;;;;;4978059;28;20464;-79
2020/12/15 04:06:46;;;;;;;34.73;24.20;;;3.40;93.70;;;;;;4983134;28;20521;-80
2020/12/15 04:09:13;;;;;;;38.50;24.80;;;3.40;93.70;;;;;;4979573;28;20481;-79
2020/12/15 04:11:41;;;;;;;37.63;22.97;;;3.40;93.40;;;;;;4988181;28;20460;-79
2020/12/15 04:14:08;;;;;;;37.90;24.10;;;3.50;93.70;;;;;;4985298;28;20473;-79
2020/12/15 04:16:34;;;;;;;37.40;24.20;;;3.50;93.60;;;;;;4976029;28;20448;-79
2020/12/15 04:19:01;;;;;;;35.30;23.40;;;3.50;93.10;;;;;;4995758;28;20530;-79
2020/12/15 04:21:28;;;;;;;36.83;22.90;;;3.50;92.90;;;;;;4973566;28;20455;-79
2020/12/15 04:23:56;;;;;;;40.07;25.20;;;3.50;92.30;;;;;;4972502;28;20462;-79
2020/12/15 04:26:22;;;;;;;34.57;21.40;;;3.50;92.80;;;;;;4971376;28;20511;-79
2020/12/15 04:28:51;;;;;;;36.20;22.87;;;3.50;93.20;;;;;;4988680;28;20451;-80
2020/12/15 04:31:19;;;;;;;32.63;23.33;;;3.50;92.80;;;;;;4981445;28;20555;-79
2020/12/15 04:33:49;;;;;;;36.00;22.17;;;3.60;92.80;;;;;;4977171;28;20896;-79
2020/12/15 04:36:15;;;;;;;39.23;24.07;;;3.50;92.10;;;;;;4983533;28;20446;-80
2020/12/15 04:38:44;;;;;;;36.77;23.77;;;3.50;92.70;;;;;;4987419;28;20945;-80
2020/12/15 04:41:13;;;;;;;39.00;24.50;;;3.50;92.30;;;;;;4976870;28;21085;-80
2020/12/15 04:43:40;;;;;;;33.90;22.50;;;3.50;92.40;;;;;;4986508;28;20467;-80
2020/12/15 04:46:11;;;;;;;38.53;24.03;;;3.60;93.00;;;;;;4991377;28;20474;-80
2020/12/15 04:48:43;;;;;;;36.77;21.87;;;3.60;92.60;;;;;;4984689;28;20460;-80
2020/12/15 04:51:12;;;;;;;35.20;22.83;;;3.60;92.70;;;;;;4984724;28;20463;-80
2020/12/15 04:53:44;;;;;;;35.10;22.20;;;3.70;92.50;;;;;;4976257;28;20528;-79
2020/12/15 04:56:28;;;;;;;37.13;24.13;;;3.60;92.40;;;;;;4957337;28;20546;-79
2020/12/15 04:58:57;;;;;;;34.93;21.50;;;3.60;92.60;;;;;;4968284;28;20496;-79
2020/12/15 05:01:24;;;;;;;38.07;23.27;;;3.60;92.60;;;;;;4992745;28;20465;-79
2020/12/15 05:03:52;;;;;;;39.20;23.27;;;3.60;92.60;;;;;;4980987;28;20472;-78
2020/12/15 05:06:27;;;;;;;34.23;22.20;;;3.60;92.50;;;;;;4986141;28;20528;-81
2020/12/15 05:08:58;;;;;;;37.87;23.33;;;3.60;93.10;;;;;;5000159;28;20460;-81
2020/12/15 05:11:26;;;;;;;34.47;22.47;;;3.70;93.20;;;;;;4989730;28;20458;-80
2020/12/15 05:13:52;;;;;;;39.70;23.03;;;3.60;93.20;;;;;;4992119;28;20498;-80
2020/12/15 05:16:19;;;;;;;38.23;22.53;;;3.60;93.30;;;;;;4992204;28;20455;-81
2020/12/15 05:18:45;;;;;;;44.17;24.10;;;3.60;93.10;;;;;;4996064;28;20466;-80
2020/12/15 05:21:13;;;;;;;40.50;23.97;;;3.60;93.30;;;;;;4999304;28;20466;-80
2020/12/15 05:23:54;;;;;;;39.03;23.60;;;3.70;93.30;;;;;;4985677;28;20451;-80
2020/12/15 05:26:23;;;;;;;38.47;24.60;;;3.70;93.20;;;;;;4980533;28;20476;-80
2020/12/15 05:29:03;;;;;;;38.60;23.90;;;3.50;93.50;;;;;;4979564;28;20467;-80
2020/12/15 05:31:32;;;;;;;41.80;23.23;;;3.60;93.70;;;;;;4983141;28;20459;-80
2020/12/15 05:34:01;;;;;;;41.20;24.63;;;3.70;93.40;;;;;;4981948;28;20491;-79
2020/12/15 05:36:27;;;;;;;41.87;24.20;;;3.70;94.10;;;;;;4983227;28;20463;-81
2020/12/15 05:39:05;;;;;;;40.73;24.03;;;3.70;93.60;;;;;;4986310;28;20459;-81
2020/12/15 05:41:36;;;;;;;38.97;24.90;;;3.70;93.20;;;;;;4994942;28;20459;-81
2020/12/15 05:44:04;;;;;;;39.73;22.87;;;3.70;93.00;;;;;;4993884;28;20450;-80
2020/12/15 05:46:33;;;;;;;39.57;23.67;;;3.80;93.00;;;;;;4988892;28;20463;-80
2020/12/15 05:49:05;;;;;;;36.23;23.57;;;3.70;92.80;;;;;;4988513;28;20437;-80
2020/12/15 05:51:41;;;;;;;35.97;22.50;;;3.80;92.80;;;;;;4988750;28;20462;-81
2020/12/15 05:54:11;;;;;;;41.10;24.10;;;3.80;92.80;;;;;;4972598;28;20497;-80
2020/12/15 05:56:38;;;;;;;39.63;23.37;;;3.80;92.80;;;;;;4982946;28;20460;-81
2020/12/15 05:59:20;;;;;;;38.27;23.57;;;3.80;92.50;;;;;;4986687;28;20458;-80
2020/12/15 06:01:48;;;;;;;43.73;23.93;;;3.90;92.60;;;;;;4965061;28;20448;-79
2020/12/15 06:04:16;;;;;;;40.73;24.23;;;3.80;92.40;;;;;;4979020;28;20486;-80
2020/12/15 06:06:43;;;;;;;37.20;22.30;;;3.80;92.50;;;;;;4989810;28;20462;-80
2020/12/15 06:09:11;;;;;;;40.23;23.63;;;3.90;92.30;;;;;;4989021;28;20544;-80
2020/12/15 06:11:40;;;;;;;34.90;22.97;;;3.80;92.20;;;;;;4978342;28;20479;-79
2020/12/15 06:14:08;;;;;;;37.20;23.73;;;3.80;92.30;;;;;;4976011;28;20472;-79
2020/12/15 06:16:37;;;;;;;40.53;24.57;;;3.80;92.30;;;;;;4984984;28;20548;-80
2020/12/15 06:19:06;;;;;;;34.40;21.83;;;3.70;92.30;;;;;;4986417;28;20487;-80
2020/12/15 06:21:36;;;;;;;38.20;22.43;;;3.70;92.30;;;;;;4983219;28;20575;-79
2020/12/15 06:24:05;;;;;;;33.40;21.10;;;3.60;93.00;;;;;;4992888;28;20567;-80
2020/12/15 06:26:34;;;;;;;36.70;21.20;;;3.60;93.20;;;;;;5009199;28;20941;-80
2020/12/15 06:29:03;;;;;;;32.03;20.10;;;3.60;92.60;;;;;;5003881;28;20476;-79
2020/12/15 06:31:30;;;;;;;35.03;20.33;;;3.60;92.30;;;;;;4988030;28;20525;-80
2020/12/15 06:34:00;;;;;;;33.30;19.23;;;3.70;92.40;;;;;;4978077;28;20641;-79
2020/12/15 06:36:31;;;;;;;30.53;18.77;;;3.70;91.90;;;;;;4992202;28;20570;-80
2020/12/15 06:38:59;;;;;;;32.60;19.07;;;3.60;92.10;;;;;;4989074;28;20481;-80
2020/12/15 06:41:26;;;;;;;35.70;21.60;;;3.70;94.00;;;;;;4977747;28;20460;-79
2020/12/15 06:44:03;;;;;;;34.87;20.37;;;3.80;92.00;;;;;;4994864;28;20455;-80
2020/12/15 06:46:30;;;;;;;28.87;19.70;;;3.80;92.10;;;;;;4981849;28;20482;-80
2020/12/15 06:48:56;;;;;;;30.53;18.47;;;3.80;92.20;;;;;;4989551;28;20488;-80
2020/12/15 06:51:29;;;;;;;31.00;19.57;;;3.80;92.30;;;;;;4982707;28;20513;-81
2020/12/15 06:54:00;;;;;;;30.30;19.50;;;3.70;92.50;;;;;;4985339;28;20468;-79
2020/12/15 06:56:29;;;;;;;29.40;19.27;;;3.70;92.70;;;;;;4980287;28;20448;-79
2020/12/15 06:59:06;;;;;;;33.60;20.57;;;3.80;92.70;;;;;;4978572;28;20946;-79
2020/12/15 07:01:33;;;;;;;28.30;19.47;;;3.80;92.30;;;;;;4978179;28;21012;-78
2020/12/15 07:04:02;;;;;;;31.90;19.83;;;3.80;92.50;;;;;;4978257;28;20460;-78
2020/12/15 07:06:29;;;;;;;32.60;20.70;;;3.80;92.70;;;;;;4974565;28;20484;-79
2020/12/15 07:09:01;;;;;;;36.80;21.40;;;3.70;92.80;;;;;;4978170;28;20455;-78
2020/12/15 07:11:28;;;;;;;35.03;22.20;;;3.70;93.70;;;;;;4985660;28;21054;-79
2020/12/15 07:13:57;;;;;;;39.33;23.23;;;3.60;93.70;;;;;;4983489;28;20472;-79
2020/12/15 07:16:24;;;;;;;35.83;22.70;;;3.60;94.50;;;;;;4985921;28;20460;-79
2020/12/15 07:18:51;;;;;;;40.53;24.10;;;3.60;94.70;;;;;;4982088;28;20858;-77
2020/12/15 07:21:18;;;;;;;40.27;24.77;;;3.70;95.20;;;;;;4969466;28;21026;-78
2020/12/15 07:23:46;;;;;;;34.37;22.50;;;3.60;94.40;;;;;;4976777;28;20447;-79
2020/12/15 07:26:14;;;;;;;46.07;26.07;;;3.60;95.00;;;;;;4983553;28;20512;-79
2020/12/15 07:28:45;;;;;;;41.03;23.97;;;3.80;95.20;;;;;;4977334;28;20542;-79
2020/12/15 07:31:25;;;;;;;41.90;25.90;;;3.80;93.70;;;;;;4990053;28;20462;-78
2020/12/15 07:34:02;;;;;;;36.83;24.47;;;3.90;93.60;;;;;;4980917;28;20530;-78
2020/12/15 07:36:28;;;;;;;40.30;24.83;;;4.00;92.80;;;;;;4978060;28;20469;-79
2020/12/15 07:38:56;;;;;;;39.97;26.73;;;4.10;92.70;;;;;;4979365;28;20456;-79
2020/12/15 07:41:23;;;;;;;40.47;26.47;;;4.10;92.20;;;;;;4982513;28;20461;-79
2020/12/15 07:43:55;;;;;;;44.20;25.70;;;4.20;91.90;;;;;;4982813;28;20458;-78
2020/12/15 07:46:23;;;;;;;43.00;25.23;;;4.30;91.60;;;;;;4986124;28;20439;-79
2020/12/15 07:48:51;;;;;;;43.70;26.17;;;4.20;91.20;;;;;;4983288;28;20458;-78
2020/12/15 07:51:17;;;;;;;41.83;25.33;;;4.20;91.50;;;;;;4980832;28;20460;-77
2020/12/15 07:53:52;;;;;;;37.63;24.53;;;4.30;90.90;;;;;;4976433;28;20511;-79
2020/12/15 07:56:20;;;;;;;45.00;25.93;;;4.30;91.20;;;;;;4978081;28;20456;-78
2020/12/15 07:58:50;;;;;;;37.60;22.80;;;4.30;91.30;;;;;;4971522;28;20482;-78
2020/12/15 08:01:21;;;;;;;41.90;26.20;;;4.40;91.10;;;;;;4971861;28;20480;-78
2020/12/15 08:03:48;;;;;;;39.67;25.37;;;4.40;90.80;;;;;;4972902;28;20815;-79
2020/12/15 08:06:15;;;;;;;42.50;25.33;;;4.30;90.70;;;;;;4975966;28;20549;-79
2020/12/15 08:08:51;;;;;;;39.67;24.30;;;4.40;90.80;;;;;;4981767;28;20508;-80
2020/12/15 08:11:19;;;;;;;39.70;26.50;;;4.50;92.70;;;;;;4979712;28;20487;-79
2020/12/15 08:13:47;;;;;;;39.17;24.77;;;4.50;91.80;;;;;;4978896;28;20640;-78
2020/12/15 08:16:14;;;;;;;38.80;24.47;;;4.50;90.80;;;;;;4978275;28;20454;-79
2020/12/15 08:18:42;;;;;;;41.00;25.03;;;4.50;90.50;;;;;;4967067;28;20941;-78
2020/12/15 08:21:16;;;;;;;35.43;22.03;;;4.40;90.60;;;;;;4969815;28;20879;-78
2020/12/15 08:23:51;;;;;;;37.47;23.77;;;4.30;90.70;;;;;;4970394;28;20454;-78
2020/12/15 08:26:20;;;;;;;36.30;22.37;;;4.30;91.10;;;;;;4969998;28;20459;-78
2020/12/15 08:28:47;;;;;;;40.43;24.90;;;4.20;91.40;;;;;;4972635;28;20446;-77
2020/12/15 08:31:18;;;;;;;33.20;21.63;;;4.20;91.50;;;;;;4970783;28;20460;-79
2020/12/15 08:33:45;;;;;;;36.03;22.33;;;4.30;91.20;;;;;;4971712;28;20834;-78
2020/12/15 08:36:12;;;;;;;39.40;22.77;;;4.40;90.90;;;;;;4979114;28;20873;-79
2020/12/15 08:38:43;;;;;;;33.80;22.53;;;4.50;90.70;;;;;;4979020;28;20453;-78
2020/12/15 08:41:14;;;;;;;35.07;21.20;;;4.60;89.80;;;;;;4975601;28;20513;-78
2020/12/15 08:43:47;;;;;;;36.63;23.50;;;4.70;88.90;;;;;;4980380;28;20453;-78
2020/12/15 08:46:15;;;;;;;33.83;21.87;;;4.70;88.60;;;;;;4973379;28;20475;-77
2020/12/15 08:48:42;;;;;;;34.67;21.63;;;4.70;88.00;;;;;;4973855;28;20449;-78
2020/12/15 08:51:12;;;;;;;28.70;20.00;;;4.80;88.00;;;;;;4974064;28;20889;-77
2020/12/15 08:53:42;;;;;;;32.23;20.63;;;4.80;88.00;;;;;;4975905;28;20462;-77
2020/12/15 08:56:16;;;;;;;27.73;20.13;;;4.90;87.00;;;;;;4982287;28;20462;-77
2020/12/15 08:58:46;;;;;;;31.40;20.60;;;4.90;86.10;;;;;;4981688;28;20824;-78
2020/12/15 09:01:13;;;;;;;31.77;19.80;;;5.00;86.20;;;;;;4977363;28;20451;-77
2020/12/15 09:03:47;;;;;;;29.63;19.17;;;5.10;86.10;;;;;;4977016;28;20545;-79
2020/12/15 09:06:14;;;;;;;29.17;19.83;;;5.10;85.00;;;;;;4977505;28;20454;-78
2020/12/15 09:08:48;;;;;;;32.77;19.70;;;5.10;84.80;;;;;;4982076;28;20449;-75
2020/12/15 09:11:17;;;;;;;27.07;18.50;;;5.30;84.10;;;;;;4972876;28;20466;-79
2020/12/15 09:13:55;;;;;;;27.23;18.50;;;5.30;83.80;;;;;;4968924;28;20739;-75
2020/12/15 09:16:29;;;;;;;24.77;17.57;;;5.50;82.90;;;;;;4970838;28;20459;-74
2020/12/15 09:18:56;;;;;;;26.07;17.43;;;5.50;82.30;;;;;;4969364;28;20505;-75
2020/12/15 09:21:24;;;;;;;27.20;17.27;;;5.60;82.40;;;;;;4975508;28;20444;-75
2020/12/15 09:23:52;;;;;;;24.13;16.17;;;5.70;81.80;;;;;;4973309;28;20458;-74
2020/12/15 09:26:21;;;;;;;25.27;17.47;;;5.70;81.50;;;;;;4981805;28;20531;-74
2020/12/15 09:28:48;;;;;;;23.40;16.40;;;5.90;80.80;;;;;;4965609;28;20523;-74
2020/12/15 09:31:17;;;;;;;28.00;18.30;;;5.90;80.10;;;;;;4964573;28;20457;-75
2020/12/15 09:33:43;;;;;;;24.40;17.10;;;5.90;80.20;;;;;;4964781;28;20628;-75
2020/12/15 09:36:12;;;;;;;25.00;17.00;;;6.00;79.90;;;;;;4971462;28;20983;-74
2020/12/15 09:38:39;;;;;;;24.40;17.57;;;6.10;79.60;;;;;;4965779;28;20473;-74
2020/12/15 09:41:06;;;;;;;23.10;17.30;;;6.10;79.30;;;;;;4976321;28;20450;-73
2020/12/15 09:43:32;;;;;;;24.67;16.57;;;6.00;78.90;;;;;;4965035;28;21323;-75
2020/12/15 09:46:01;;;;;;;22.90;17.03;;;6.00;79.00;;;;;;4970705;28;20469;-73
2020/12/15 09:48:29;;;;;;;24.20;17.73;;;5.90;79.30;;;;;;4964672;28;20466;-73
2020/12/15 09:50:59;;;;;;;24.90;18.43;;;5.80;79.30;;;;;;4970282;28;20505;-78
2020/12/15 09:53:25;;;;;;;26.33;17.77;;;5.80;79.70;;;;;;4983932;28;20457;-81
2020/12/15 09:55:52;;;;;;;20.87;15.37;;;5.80;79.30;;;;;;5004466;28;20540;-82
2020/12/15 09:58:21;;;;;;;24.50;16.80;;;5.80;80.30;;;;;;4987412;28;21398;-81
2020/12/15 10:00:47;;;;;;;30.33;19.30;;;5.80;79.50;;;;;;4973603;28;20472;-82
2020/12/15 10:03:20;;;;;;;23.60;16.70;;;5.90;79.80;;;;;;4984174;28;20514;-81
2020/12/15 10:05:48;;;;;;;23.90;16.23;;;5.90;79.50;;;;;;4972276;28;20478;-80
2020/12/15 10:08:15;;;;;;;25.47;17.50;;;5.90;79.50;;;;;;4977950;28;20448;-81
2020/12/15 10:10:43;;;;;;;30.27;17.20;;;5.90;79.80;;;;;;4990955;28;20487;-84
2020/12/15 10:13:10;;;;;;;24.23;17.50;;;6.00;79.70;;;;;;4975856;28;20463;-75
2020/12/15 10:15:37;;;;;;;24.30;16.70;;;6.60;81.80;;;;;;4971162;28;20520;-74
2020/12/15 10:18:04;;;;;;;25.57;17.20;;;6.50;78.70;;;;;;4963350;28;20498;-73
2020/12/15 10:20:30;;;;;;;23.70;17.67;;;6.40;78.40;;;;;;4976272;28;20451;-73
2020/12/15 10:23:05;;;;;;;25.63;17.80;;;6.30;78.50;;;;;;4970297;28;20468;-74
2020/12/15 10:25:32;;;;;;;24.63;17.13;;;6.40;78.40;;;;;;4975012;28;20441;-73
2020/12/15 10:28:01;;;;;;;23.17;16.63;;;6.30;78.20;;;;;;4971332;28;20576;-74
2020/12/15 10:30:28;;;;;;;29.53;17.97;;;6.30;78.30;;;;;;4976745;28;20467;-74
2020/12/15 10:32:58;;;;;;;22.50;16.70;;;6.20;78.50;;;;;;4971114;28;20540;-74
2020/12/15 10:35:24;;;;;;;23.40;18.33;;;6.20;78.60;;;;;;4976218;28;20854;-74
2020/12/15 10:37:51;;;;;;;22.53;17.43;;;6.10;78.40;;;;;;4972054;28;20477;-74
2020/12/15 10:40:18;;;;;;;24.17;17.70;;;6.20;78.60;;;;;;4972898;28;20514;-73
2020/12/15 10:42:45;;;;;;;21.97;17.03;;;6.20;78.40;;;;;;4963852;28;20462;-74
2020/12/15 10:45:14;;;;;;;22.63;17.27;;;6.30;78.10;;;;;;4970275;28;20488;-73
2020/12/15 10:47:43;;;;;;;27.20;19.37;;;6.20;78.20;;;;;;4965285;28;20464;-73
2020/12/15 10:50:10;;;;;;;33.53;20.40;;;6.20;78.30;;;;;;4969983;28;20452;-73
2020/12/15 10:52:37;;;;;;;25.70;17.93;;;6.30;78.30;;;;;;4971048;28;20492;-73
2020/12/15 10:55:04;;;;;;;22.27;18.00;;;6.50;78.00;;;;;;4979964;28;20468;-73
2020/12/15 10:57:36;;;;;;;23.70;16.90;;;6.50;77.80;;;;;;4979369;28;20452;-74
2020/12/15 11:00:06;;;;;;;28.20;16.80;;;6.70;77.40;;;;;;4973999;28;20464;-74
2020/12/15 11:02:33;;;;;;;22.70;17.33;;;6.70;77.40;;;;;;4966646;28;20449;-73
2020/12/15 11:05:00;;;;;;;21.37;17.00;;;6.80;77.10;;;;;;4971528;28;20557;-73
2020/12/15 11:07:27;;;;;;;22.13;16.67;;;7.00;76.70;;;;;;4979953;28;20460;-73
2020/12/15 11:09:53;;;;;;;25.93;17.90;;;7.10;76.50;;;;;;4974963;28;20457;-73
2020/12/15 11:12:21;;;;;;;25.33;17.20;;;7.10;76.30;;;;;;4975824;28;20485;-73
2020/12/15 11:14:51;;;;;;;20.87;16.23;;;7.00;76.30;;;;;;4967939;28;20570;-73
2020/12/15 11:17:18;;;;;;;25.87;16.97;;;7.10;76.20;;;;;;4973595;28;20456;-73
2020/12/15 11:19:44;;;;;;;21.23;16.23;;;6.80;76.10;;;;;;4977372;28;20463;-73
2020/12/15 11:22:10;;;;;;;25.57;17.90;;;6.80;76.40;;;;;;4968630;28;20456;-73
2020/12/15 11:24:40;;;;;;;24.00;17.23;;;6.70;76.50;;;;;;4978844;28;20445;-74
2020/12/15 11:27:07;;;;;;;21.57;17.23;;;6.60;76.50;;;;;;4976499;28;20461;-73
2020/12/15 11:29:34;;;;;;;21.87;17.40;;;6.60;76.60;;;;;;4976890;28;20556;-74
2020/12/15 11:32:01;;;;;;;22.30;17.47;;;6.90;76.60;;;;;;4976762;28;20449;-73
2020/12/15 11:34:28;;;;;;;22.40;17.30;;;7.10;76.20;;;;;;4970466;28;20636;-72
2020/12/15 11:36:55;;;;;;;22.17;17.10;;;7.20;75.70;;;;;;4969911;28;20453;-72
2020/12/15 11:39:22;;;;;;;22.33;16.40;;;7.30;75.60;;;;;;4964057;28;20456;-71
2020/12/15 11:41:49;;;;;;;22.90;17.17;;;7.40;75.50;;;;;;4966491;28;20900;-72
2020/12/15 11:44:16;;;;;;;30.80;18.73;;;7.50;75.30;;;;;;4964919;28;20971;-73
2020/12/15 11:46:42;;;;;;;21.23;16.73;;;7.50;75.10;;;;;;4969496;28;20451;-73
2020/12/15 11:49:10;;;;;;;25.50;18.73;;;7.60;74.80;;;;;;4960755;28;20444;-72
2020/12/15 11:51:39;;;;;;;20.30;15.97;;;7.70;74.60;;;;;;4962379;28;20496;-72
2020/12/15 11:54:05;;;;;;;21.07;15.70;;;7.60;74.50;;;;;;4969008;28;20993;-72
2020/12/15 11:56:34;;;;;;;24.20;17.97;;;7.60;74.80;;;;;;4980246;28;20455;-70
2020/12/15 11:59:00;;;;;;;21.90;16.67;;;7.60;74.70;;;;;;4979366;28;20486;-72
2020/12/15 12:01:27;;;;;;;24.20;17.80;;;7.60;74.40;;;;;;4962781;28;21347;-73
2020/12/15 12:03:53;;;;;;;22.70;17.20;;;7.40;74.40;;;;;;4965756;28;20466;-75
2020/12/15 12:06:21;;;;;;;21.37;16.60;;;7.40;74.80;;;;;;4966790;28;20462;-73
2020/12/15 12:08:47;;;;;;;21.20;16.10;;;7.20;75.20;;;;;;4968558;28;20476;-74
2020/12/15 12:11:14;;;;;;;22.53;17.27;;;7.00;75.50;;;;;;4971203;28;20453;-73
2020/12/15 12:13:40;;;;;;;38.63;19.23;;;7.00;75.60;;;;;;4963934;28;20512;-73
2020/12/15 12:16:08;;;;;;;24.50;17.17;;;6.90;75.70;;;;;;4966745;28;20561;-73
2020/12/15 12:18:38;;;;;;;21.93;17.13;;;7.10;75.80;;;;;;4962223;28;20458;-73
2020/12/15 12:21:04;;;;;;;26.87;18.70;;;7.10;75.60;;;;;;4961795;28;20867;-73
2020/12/15 12:23:32;;;;;;;26.23;17.37;;;7.00;75.10;;;;;;4969527;28;20452;-73
2020/12/15 12:25:58;;;;;;;23.33;17.10;;;7.20;75.30;;;;;;4976958;28;20452;-73
2020/12/15 12:28:25;;;;;;;24.53;16.87;;;7.10;75.50;;;;;;4980893;28;20723;-73
2020/12/15 12:30:51;;;;;;;25.03;17.97;;;7.10;75.80;;;;;;4974900;28;20452;-72
2020/12/15 12:33:18;;;;;;;25.67;19.30;;;7.10;75.80;;;;;;4964880;28;20969;-73
2020/12/15 12:35:51;;;;;;;26.83;19.07;;;7.00;75.90;;;;;;4971019;28;20553;-73
2020/12/15 12:38:23;;;;;;;27.20;18.07;;;6.90;76.30;;;;;;4977539;28;20834;-72
2020/12/15 12:40:51;;;;;;;24.53;17.20;;;6.90;76.30;;;;;;4980976;28;20854;-73